Time;durP1;ratioP1;P1;durP2;ratioP2;P2;SDS_P1;SDS_P2;PMS_P1;PMS_P2;Temp;Humidity;BMP_temperature;BMP_pressure;BME280_temperature;BME280_humidity;BME280_pressure;Samples;Min_cycle;Max_cycle;Signal;HPM_P1;HPM_P2
2023/05/19 00:00:13;;;;;;;9.13;2.50;;;10.00;99.90;;;;;;5013253;28;20111;-86
2023/05/19 00:02:59;;;;;;;21.60;3.15;;;10.00;99.90;;;;;;5012259;28;20099;-85
2023/05/19 00:05:49;;;;;;;13.00;3.20;;;10.00;99.90;;;;;;5011742;28;20046;-82
2023/05/19 00:08:37;;;;;;;12.15;3.30;;;10.00;99.90;;;;;;5011820;28;20440;-82
2023/05/19 00:11:26;;;;;;;17.10;3.40;;;10.00;99.90;;;;;;4995188;28;20474;-81
2023/05/19 00:14:12;;;;;;;14.20;3.20;;;10.00;99.90;;;;;;5011049;28;20089;-82
2023/05/19 00:17:00;;;;;;;8.63;2.50;;;10.00;99.90;;;;;;5011411;28;20478;-81
2023/05/19 00:19:46;;;;;;;16.77;2.60;;;10.00;99.90;;;;;;5010905;28;20093;-83
2023/05/19 00:22:35;;;;;;;16.10;3.28;;;10.00;99.90;;;;;;5010911;28;20058;-81
2023/05/19 00:25:22;;;;;;;16.38;3.78;;;10.00;99.90;;;;;;5012074;28;20050;-81
2023/05/19 00:28:08;;;;;;;15.63;3.03;;;10.00;99.90;;;;;;5010108;28;20072;-82
2023/05/19 00:30:54;;;;;;;8.25;2.50;;;10.00;99.90;;;;;;4993453;28;20089;-82
2023/05/19 00:33:41;;;;;;;11.20;2.47;;;10.00;99.90;;;;;;5011354;28;20081;-83
2023/05/19 00:36:27;;;;;;;17.15;2.60;;;9.90;99.90;;;;;;5010691;28;20096;-82
2023/05/19 00:39:14;;;;;;;12.35;2.45;;;9.90;99.90;;;;;;4993407;28;20588;-82
2023/05/19 00:42:01;;;;;;;9.75;2.25;;;9.90;99.90;;;;;;5010724;28;20144;-81
2023/05/19 00:44:47;;;;;;;15.63;3.13;;;9.90;99.90;;;;;;4994074;28;20058;-84
2023/05/19 00:47:36;;;;;;;15.77;2.92;;;9.90;99.90;;;;;;5011111;28;20580;-81
2023/05/19 00:50:23;;;;;;;14.75;3.00;;;9.90;99.90;;;;;;5010928;28;20058;-82
2023/05/19 00:53:09;;;;;;;12.23;3.05;;;9.90;99.90;;;;;;5011119;28;20061;-83
2023/05/19 00:55:57;;;;;;;13.50;3.80;;;10.00;99.90;;;;;;4980621;28;20057;-82
2023/05/19 00:58:49;;;;;;;15.77;2.50;;;9.90;99.90;;;;;;4992982;28;20089;-85
2023/05/19 01:01:40;;;;;;;13.68;2.58;;;9.90;99.90;;;;;;5010392;28;20081;-85
2023/05/19 01:04:26;;;;;;;15.23;2.92;;;9.90;99.90;;;;;;4994027;28;20053;-87
2023/05/19 01:07:12;;;;;;;17.45;3.15;;;9.90;99.90;;;;;;4991081;28;20050;-83
2023/05/19 01:09:59;;;;;;;11.30;2.47;;;9.90;99.90;;;;;;5009572;28;20065;-86
2023/05/19 01:12:46;;;;;;;15.85;2.35;;;9.90;99.90;;;;;;5009372;28;20045;-86
2023/05/19 01:15:40;;;;;;;11.68;2.20;;;9.90;99.90;;;;;;4936529;29;20535;-87
2023/05/19 01:18:54;;;;;;;13.20;2.78;;;9.90;99.90;;;;;;4949895;29;20059;-85
2023/05/19 01:21:52;;;;;;;17.17;2.40;;;9.90;99.90;;;;;;4951317;28;20059;-85
2023/05/19 01:24:58;;;;;;;12.60;2.55;;;9.90;99.90;;;;;;4935256;28;20051;-86
2023/05/19 01:28:23;;;;;;;8.48;2.35;;;9.90;99.90;;;;;;4938961;28;20058;-82
2023/05/19 01:31:10;;;;;;;13.77;2.67;;;9.90;99.90;;;;;;4946223;28;20614;-85
2023/05/19 01:33:59;;;;;;;14.80;2.60;;;9.80;99.90;;;;;;4963478;29;20069;-85
2023/05/19 01:36:48;;;;;;;15.63;2.90;;;9.80;99.90;;;;;;4954286;29;20526;-81
2023/05/19 01:39:35;;;;;;;13.68;3.10;;;9.70;99.90;;;;;;4949549;29;20496;-82
2023/05/19 01:42:22;;;;;;;13.75;2.80;;;9.70;99.90;;;;;;4949547;29;20855;-81
2023/05/19 01:45:12;;;;;;;32.00;4.05;;;9.60;99.90;;;;;;4949022;29;20051;-81
2023/05/19 01:48:04;;;;;;;16.15;3.15;;;9.60;99.90;;;;;;4995776;28;20527;-81
2023/05/19 01:50:56;;;;;;;16.73;3.15;;;9.60;99.90;;;;;;5009985;28;20081;-82
2023/05/19 01:53:42;;;;;;;19.38;2.95;;;9.50;99.90;;;;;;5009372;28;20421;-82
2023/05/19 01:56:47;;;;;;;19.52;3.08;;;9.50;99.90;;;;;;4855146;28;3559526;-82
2023/05/19 02:00:04;;;;;;;14.32;3.78;;;9.40;99.90;;;;;;5009549;28;20063;-82
2023/05/19 02:03:06;;;;;;;13.48;3.00;;;9.50;99.90;;;;;;5009437;28;20144;-82
2023/05/19 02:06:32;;;;;;;12.73;3.47;;;9.30;99.90;;;;;;4992025;28;20061;-83
2023/05/19 02:09:21;;;;;;;;;;;9.30;99.90;;;;;;4986179;28;20085;-85
2023/05/19 02:12:10;;;;;;;14.95;4.10;;;9.30;99.90;;;;;;4992162;28;19928;-84
2023/05/19 02:15:06;;;;;;;14.50;3.60;;;9.30;99.90;;;;;;5009716;28;20069;-82
2023/05/19 02:17:53;;;;;;;;;;;9.30;99.90;;;;;;5009368;28;20061;-82
2023/05/19 02:20:39;;;;;;;19.27;3.50;;;9.30;99.90;;;;;;5010292;28;19953;-84
2023/05/19 02:23:30;;;;;;;16.38;3.30;;;9.20;99.90;;;;;;4979351;28;20046;-83
2023/05/19 02:26:16;;;;;;;14.82;3.20;;;9.20;99.90;;;;;;4992337;28;20065;-83
2023/05/19 02:29:02;;;;;;;15.68;5.13;;;9.30;99.90;;;;;;4992517;28;20145;-86
2023/05/19 02:31:48;;;;;;;11.82;2.75;;;9.20;99.90;;;;;;5009529;28;20054;-86
2023/05/19 02:34:35;;;;;;;18.35;3.10;;;9.20;99.90;;;;;;5008754;28;20065;-85
2023/05/19 02:37:27;;;;;;;13.95;2.88;;;9.20;99.90;;;;;;5010465;28;20046;-86
2023/05/19 02:40:13;;;;;;;12.45;3.00;;;9.10;99.90;;;;;;5009870;28;20046;-84
2023/05/19 02:42:59;;;;;;;11.10;2.63;;;9.10;99.90;;;;;;5009873;28;20049;-86
2023/05/19 02:45:45;;;;;;;13.68;3.50;;;9.10;99.90;;;;;;4978594;28;20120;-85
2023/05/19 02:48:31;;;;;;;13.90;2.80;;;9.10;99.90;;;;;;4991590;28;20145;-86
2023/05/19 02:51:17;;;;;;;14.65;3.47;;;9.10;99.90;;;;;;5008995;28;20053;-84
2023/05/19 02:54:03;;;;;;;12.05;3.30;;;9.00;99.90;;;;;;5009040;28;20085;-85
2023/05/19 02:56:49;;;;;;;16.58;3.58;;;9.00;99.90;;;;;;4991448;28;20056;-84
2023/05/19 02:59:36;;;;;;;12.15;3.00;;;9.00;99.90;;;;;;4979554;28;20564;-85
2023/05/19 03:02:22;;;;;;;15.02;4.13;;;9.00;99.90;;;;;;4977551;28;20054;-85
2023/05/19 03:05:09;;;;;;;14.70;2.40;;;9.00;99.90;;;;;;4990994;28;20050;-84
2023/05/19 03:07:55;;;;;;;16.50;4.20;;;8.90;99.90;;;;;;4991780;28;20057;-85
2023/05/19 03:10:41;;;;;;;10.85;2.53;;;8.90;99.90;;;;;;5008954;28;20057;-86
2023/05/19 03:13:27;;;;;;;13.85;3.33;;;8.90;99.90;;;;;;4991024;28;20422;-86
2023/05/19 03:16:14;;;;;;;18.85;3.30;;;8.90;99.90;;;;;;4990732;28;20042;-87
2023/05/19 03:19:00;;;;;;;15.88;2.88;;;8.90;99.90;;;;;;4978426;28;20066;-87
2023/05/19 03:21:49;;;;;;;9.73;2.55;;;8.90;99.90;;;;;;5008230;28;20062;-86
2023/05/19 03:24:35;;;;;;;21.73;3.38;;;8.90;99.90;;;;;;4991898;28;20046;-85
2023/05/19 03:27:21;;;;;;;21.27;4.72;;;8.90;99.90;;;;;;4977809;28;20160;-86
2023/05/19 03:30:08;;;;;;;17.70;4.82;;;8.80;99.90;;;;;;5011162;28;20406;-85
2023/05/19 03:32:54;;;;;;;17.88;3.50;;;8.90;99.90;;;;;;5013528;28;20046;-86
2023/05/19 03:35:43;;;;;;;16.30;3.38;;;8.90;99.90;;;;;;4994720;28;20046;-83
2023/05/19 03:38:29;;;;;;;13.30;3.22;;;8.90;99.90;;;;;;4995229;28;20156;-86
2023/05/19 03:41:15;;;;;;;21.65;3.60;;;9.00;99.90;;;;;;4994612;28;20046;-86
2023/05/19 03:44:02;;;;;;;24.33;4.82;;;9.00;99.90;;;;;;4995451;28;20486;-84
2023/05/19 03:46:48;;;;;;;20.90;4.35;;;9.00;99.90;;;;;;4994906;28;20062;-87
2023/05/19 03:49:34;;;;;;;18.05;4.32;;;9.10;99.90;;;;;;5011611;28;20060;-84
2023/05/19 03:52:20;;;;;;;24.75;4.32;;;9.10;99.90;;;;;;5012181;28;20561;-84
2023/05/19 03:55:07;;;;;;;15.98;4.18;;;9.10;99.90;;;;;;5012248;28;20203;-82
2023/05/19 03:57:54;;;;;;;19.52;3.88;;;9.10;99.90;;;;;;4997330;28;20058;-82
2023/05/19 04:00:41;;;;;;;17.13;5.18;;;9.20;99.90;;;;;;4993899;28;20048;-81
2023/05/19 04:03:27;;;;;;;21.27;4.35;;;9.20;99.90;;;;;;5011310;28;20054;-81
2023/05/19 04:06:13;;;;;;;16.45;3.72;;;9.20;99.90;;;;;;4994145;28;20400;-82
2023/05/19 04:09:03;;;;;;;26.67;5.88;;;9.20;99.90;;;;;;5012120;28;20056;-82
2023/05/19 04:11:51;;;;;;;25.65;5.72;;;9.30;99.90;;;;;;4993801;28;20057;-82
2023/05/19 04:14:40;;;;;;;16.88;4.18;;;9.30;99.90;;;;;;4994381;28;20057;-83
2023/05/19 04:17:29;;;;;;;14.75;4.60;;;9.30;99.90;;;;;;4982163;28;20054;-82
2023/05/19 04:20:18;;;;;;;17.52;4.55;;;9.30;99.90;;;;;;5013898;28;20125;-86
2023/05/19 04:23:05;;;;;;;21.98;5.78;;;9.40;99.90;;;;;;5013244;28;20058;-85
2023/05/19 04:25:55;;;;;;;15.65;4.00;;;9.50;99.90;;;;;;5015559;28;20050;-83
2023/05/19 04:28:43;;;;;;;28.65;4.97;;;9.50;99.90;;;;;;4999580;28;20053;-82
2023/05/19 04:31:29;;;;;;;21.20;5.40;;;9.60;99.90;;;;;;5018454;28;20050;-83
2023/05/19 04:34:18;;;;;;;19.85;4.57;;;9.70;99.90;;;;;;4994665;28;20524;-83
2023/05/19 04:37:09;;;;;;;25.00;5.65;;;9.80;99.90;;;;;;4994793;28;20100;-86
2023/05/19 04:39:55;;;;;;;25.55;5.95;;;9.80;99.90;;;;;;4994445;28;20188;-87
2023/05/19 04:42:41;;;;;;;22.25;4.93;;;9.90;99.90;;;;;;4998409;28;20058;-85
2023/05/19 04:45:27;;;;;;;24.23;5.35;;;9.90;99.90;;;;;;4993456;28;20061;-83
2023/05/19 04:48:13;;;;;;;28.33;4.68;;;10.00;99.90;;;;;;5010282;28;20100;-84
2023/05/19 04:51:04;;;;;;;26.50;5.40;;;10.10;99.90;;;;;;4994100;28;20060;-85
2023/05/19 04:53:51;;;;;;;22.23;4.13;;;10.10;99.90;;;;;;4979808;28;20045;-86
2023/05/19 04:56:37;;;;;;;16.15;5.10;;;10.20;99.90;;;;;;5010659;28;20050;-85
2023/05/19 04:59:23;;;;;;;17.17;4.45;;;10.30;99.90;;;;;;5010974;28;20060;-85
2023/05/19 05:02:09;;;;;;;19.10;5.82;;;10.40;99.90;;;;;;4993064;28;20145;-83
2023/05/19 05:04:55;;;;;;;18.42;4.35;;;10.50;99.90;;;;;;4985802;28;20065;-84
2023/05/19 05:07:43;;;;;;;17.55;4.45;;;10.50;99.90;;;;;;4992177;28;20393;-82
2023/05/19 05:10:29;;;;;;;15.10;5.20;;;10.60;99.90;;;;;;4966797;28;20109;-84
2023/05/19 05:13:15;;;;;;;18.25;4.53;;;10.70;99.90;;;;;;5008842;28;20529;-84
2023/05/19 05:16:05;;;;;;;15.93;5.90;;;10.90;99.90;;;;;;4993509;28;20498;-81
2023/05/19 05:18:51;;;;;;;21.45;5.43;;;10.90;99.90;;;;;;5009834;28;20045;-82
2023/05/19 05:21:38;;;;;;;28.80;5.20;;;11.10;99.90;;;;;;5009129;28;20053;-80
2023/05/19 05:24:24;;;;;;;15.80;4.45;;;11.20;99.90;;;;;;4992699;28;20092;-82
2023/05/19 05:27:10;;;;;;;18.67;4.35;;;11.30;99.90;;;;;;4992610;28;20913;-84
2023/05/19 05:29:56;;;;;;;14.80;4.63;;;11.40;99.90;;;;;;5010706;28;20058;-81
2023/05/19 05:32:43;;;;;;;18.08;4.40;;;11.50;99.90;;;;;;5012086;28;20045;-81
2023/05/19 05:35:29;;;;;;;21.70;5.47;;;11.60;99.90;;;;;;5010329;28;20045;-81
2023/05/19 05:38:16;;;;;;;13.07;4.68;;;11.70;99.90;;;;;;4993370;28;20140;-79
2023/05/19 05:41:07;;;;;;;17.83;4.38;;;11.80;99.90;;;;;;4996755;28;20127;-83
2023/05/19 05:43:53;;;;;;;15.27;4.40;;;11.90;99.90;;;;;;5010650;28;20054;-82
2023/05/19 05:46:39;;;;;;;14.95;4.20;;;12.00;99.90;;;;;;5009546;28;20053;-84
2023/05/19 05:49:27;;;;;;;12.52;4.93;;;12.10;99.90;;;;;;4991941;28;20050;-81
2023/05/19 05:52:17;;;;;;;12.57;4.05;;;12.20;99.90;;;;;;4991557;28;20133;-82
2023/05/19 05:55:04;;;;;;;16.35;4.40;;;12.20;99.90;;;;;;4992143;28;20458;-84
2023/05/19 05:57:50;;;;;;;20.13;4.30;;;12.20;99.90;;;;;;4978442;28;20050;-85
2023/05/19 06:00:37;;;;;;;14.07;4.30;;;12.40;99.90;;;;;;5009270;28;20066;-86
2023/05/19 06:03:23;;;;;;;12.85;4.47;;;12.50;99.90;;;;;;5009020;28;20100;-82
2023/05/19 06:06:12;;;;;;;14.15;3.95;;;12.60;99.90;;;;;;4987024;28;20057;-82
2023/05/19 06:08:59;;;;;;;16.85;4.53;;;12.80;99.90;;;;;;4981368;28;20060;-82
2023/05/19 06:11:45;;;;;;;21.27;3.85;;;12.90;99.90;;;;;;4991500;28;20080;-80
2023/05/19 06:14:35;;;;;;;16.55;4.57;;;13.00;99.90;;;;;;5010797;28;20046;-84
2023/05/19 06:17:21;;;;;;;15.63;4.22;;;13.20;99.90;;;;;;4995497;28;20048;-83
2023/05/19 06:20:08;;;;;;;12.80;4.53;;;13.30;99.90;;;;;;4986396;28;20050;-82
2023/05/19 06:22:55;;;;;;;13.50;4.15;;;13.40;99.90;;;;;;4992233;28;20057;-83
2023/05/19 06:25:41;;;;;;;19.35;4.25;;;13.60;99.90;;;;;;4992958;28;20050;-83
2023/05/19 06:28:29;;;;;;;19.95;4.07;;;13.80;99.90;;;;;;4992260;28;20077;-82
2023/05/19 06:31:15;;;;;;;16.65;4.70;;;13.90;99.90;;;;;;4992318;28;20088;-82
2023/05/19 06:34:01;;;;;;;11.98;3.88;;;13.90;99.90;;;;;;5008004;28;20506;-82
2023/05/19 06:36:47;;;;;;;11.88;3.78;;;14.00;99.90;;;;;;4991940;28;20136;-83
2023/05/19 06:39:34;;;;;;;14.63;4.50;;;14.10;99.90;;;;;;4990767;28;20064;-83
2023/05/19 06:42:21;;;;;;;14.40;3.65;;;14.20;99.90;;;;;;4991308;28;20448;-84
2023/05/19 06:45:08;;;;;;;16.02;5.28;;;14.30;99.90;;;;;;4965400;28;20049;-81
2023/05/19 06:47:59;;;;;;;9.95;3.40;;;14.50;99.90;;;;;;4996081;28;20069;-82
2023/05/19 06:50:45;;;;;;;10.98;4.05;;;14.60;99.90;;;;;;4991983;28;20491;-82
2023/05/19 06:53:32;;;;;;;16.45;3.67;;;14.60;99.90;;;;;;4992319;28;20056;-82
2023/05/19 06:56:18;;;;;;;11.13;3.35;;;14.70;99.90;;;;;;4991975;28;20116;-80
2023/05/19 06:59:05;;;;;;;11.93;3.20;;;14.80;99.90;;;;;;4991272;28;20132;-80
2023/05/19 07:01:51;;;;;;;9.55;3.40;;;14.90;99.90;;;;;;5002147;28;20139;-82
2023/05/19 07:04:38;;;;;;;9.90;3.30;;;15.10;99.90;;;;;;4994965;28;20053;-86
2023/05/19 07:07:25;;;;;;;16.05;3.55;;;15.30;99.90;;;;;;4996359;28;20069;-85
2023/05/19 07:10:14;;;;;;;11.57;3.65;;;15.50;99.90;;;;;;5013925;28;20053;-84
2023/05/19 07:13:01;;;;;;;11.75;4.32;;;15.70;99.90;;;;;;5013145;28;20058;-83
2023/05/19 07:15:51;;;;;;;11.65;3.30;;;15.80;99.90;;;;;;5012189;28;20056;-83
2023/05/19 07:18:37;;;;;;;11.65;3.35;;;15.80;99.90;;;;;;4998936;28;20197;-80
2023/05/19 07:21:23;;;;;;;12.50;4.20;;;16.00;99.90;;;;;;4981659;28;20061;-82
2023/05/19 07:24:09;;;;;;;13.00;4.28;;;16.10;99.90;;;;;;5013564;28;20054;-83
2023/05/19 07:26:57;;;;;;;14.13;4.72;;;16.30;99.90;;;;;;5011808;28;20085;-80
2023/05/19 07:29:46;;;;;;;9.20;3.30;;;16.50;99.90;;;;;;5013380;28;20058;-81
2023/05/19 07:32:35;;;;;;;8.63;2.90;;;16.60;99.90;;;;;;4995926;28;20109;-86
2023/05/19 07:35:24;;;;;;;13.50;4.68;;;16.80;99.90;;;;;;4994180;28;20053;-80
2023/05/19 07:38:10;;;;;;;15.48;4.50;;;16.90;99.90;;;;;;5013243;28;20065;-83
2023/05/19 07:40:58;;;;;;;12.70;3.13;;;17.00;99.90;;;;;;4995354;28;20056;-80
2023/05/19 07:43:44;;;;;;;10.07;3.97;;;16.90;99.90;;;;;;4994911;28;20054;-85
2023/05/19 07:46:31;;;;;;;12.57;4.28;;;17.00;99.90;;;;;;5012007;28;20109;-82
2023/05/19 07:49:22;;;;;;;18.85;4.97;;;17.00;99.90;;;;;;4995248;28;20081;-83
2023/05/19 07:52:08;;;;;;;16.35;4.70;;;17.10;99.90;;;;;;5012095;28;20120;-83
2023/05/19 07:54:54;;;;;;;17.15;3.92;;;17.30;99.90;;;;;;5000022;28;20052;-84
2023/05/19 07:57:40;;;;;;;15.05;3.75;;;17.40;99.90;;;;;;5002674;28;20056;-80
2023/05/19 08:00:27;;;;;;;19.20;4.80;;;17.60;99.90;;;;;;4987975;28;20497;-80
2023/05/19 08:03:16;;;;;;;11.18;3.08;;;17.70;99.90;;;;;;4999465;28;20061;-80
2023/05/19 08:06:03;;;;;;;12.15;3.47;;;18.00;99.90;;;;;;5012109;28;20136;-80
2023/05/19 08:08:49;;;;;;;11.32;4.18;;;18.20;99.90;;;;;;5011613;28;20054;-80
2023/05/19 08:11:36;;;;;;;10.55;3.28;;;18.40;99.90;;;;;;4982097;28;20482;-80
2023/05/19 08:14:22;;;;;;;12.18;3.50;;;18.40;99.90;;;;;;4981353;28;20086;-80
2023/05/19 08:17:09;;;;;;;13.18;4.35;;;18.60;99.90;;;;;;4967358;28;20406;-81
2023/05/19 08:19:55;;;;;;;10.90;3.10;;;18.60;99.90;;;;;;4994172;28;20107;-80
2023/05/19 08:22:41;;;;;;;14.02;3.80;;;18.50;99.90;;;;;;4995012;28;20140;-82
2023/05/19 08:25:31;;;;;;;12.85;3.13;;;18.60;99.90;;;;;;4994772;28;20054;-80
2023/05/19 08:28:17;;;;;;;9.40;2.92;;;18.50;99.60;;;;;;5011121;28;20053;-80
2023/05/19 08:31:07;;;;;;;11.32;3.20;;;18.70;99.40;;;;;;4997700;28;20844;-82
2023/05/19 08:33:56;;;;;;;12.82;3.78;;;18.90;99.00;;;;;;5012202;28;20487;-79
2023/05/19 08:36:44;;;;;;;13.32;4.13;;;19.20;98.70;;;;;;4998458;28;20085;-80
2023/05/19 08:39:32;;;;;;;11.57;3.10;;;19.30;98.80;;;;;;4994201;28;20062;-80
2023/05/19 08:42:19;;;;;;;12.18;3.47;;;19.40;99.20;;;;;;4993551;28;20053;-80
2023/05/19 08:45:06;;;;;;;8.27;3.08;;;19.50;98.90;;;;;;5011486;28;20140;-80
2023/05/19 08:47:56;;;;;;;10.95;3.47;;;19.60;98.90;;;;;;4994516;28;20120;-81
2023/05/19 08:50:51;;;;;;;22.45;2.75;;;19.60;98.70;;;;;;5011084;28;20136;-81
2023/05/19 08:53:50;;;;;;;8.98;2.80;;;19.60;98.40;;;;;;4998909;28;20050;-82
2023/05/19 08:56:37;;;;;;;9.23;2.88;;;19.70;98.00;;;;;;5006270;28;20073;-84
2023/05/19 08:59:24;;;;;;;10.40;2.97;;;19.70;98.00;;;;;;5020256;28;20398;-84
2023/05/19 09:02:12;;;;;;;6.40;2.63;;;19.60;98.00;;;;;;5013595;28;20065;-81
2023/05/19 09:04:59;;;;;;;8.13;2.63;;;19.40;97.20;;;;;;5011364;28;20085;-81
2023/05/19 09:07:45;;;;;;;9.68;2.53;;;19.40;97.30;;;;;;5010869;28;20049;-83
2023/05/19 09:10:31;;;;;;;11.35;2.83;;;19.40;97.60;;;;;;4994341;28;20596;-82
2023/05/19 09:13:18;;;;;;;10.73;3.45;;;19.50;97.00;;;;;;5012602;28;20119;-84
2023/05/19 09:16:04;;;;;;;14.40;3.17;;;19.50;96.80;;;;;;5004318;28;20056;-83
2023/05/19 09:18:59;;;;;;;7.13;2.60;;;19.40;96.40;;;;;;4979048;28;20053;-83
2023/05/19 09:21:57;;;;;;;9.02;3.08;;;19.50;96.00;;;;;;4992408;28;20058;-81
2023/05/19 09:24:43;;;;;;;9.82;3.53;;;19.50;95.20;;;;;;4992203;28;20054;-82
2023/05/19 09:27:32;;;;;;;11.10;3.45;;;19.40;94.60;;;;;;5010579;28;20050;-87
2023/05/19 09:30:18;;;;;;;8.75;3.28;;;19.60;94.50;;;;;;4995153;28;20054;-85
2023/05/19 09:33:08;;;;;;;10.43;3.30;;;19.70;95.00;;;;;;5010992;28;20100;-87
2023/05/19 09:35:55;;;;;;;10.48;3.28;;;19.80;94.30;;;;;;5010451;28;20053;-86
2023/05/19 09:38:41;;;;;;;9.77;3.15;;;19.70;93.30;;;;;;4992099;28;20056;-84
2023/05/19 09:41:28;;;;;;;11.32;3.35;;;19.60;92.90;;;;;;5009502;28;20077;-91
2023/05/19 09:44:22;;;;;;;11.40;3.67;;;19.60;92.40;;;;;;4995311;28;20058;-91
2023/05/19 09:47:08;;;;;;;26.33;4.05;;;19.70;92.50;;;;;;4991540;28;20048;-89
2023/05/19 09:49:57;;;;;;;9.48;2.50;;;19.80;93.10;;;;;;4993363;28;20054;-91
2023/05/19 09:52:44;;;;;;;9.10;2.90;;;20.00;92.30;;;;;;4980976;28;20053;-91
2023/05/19 09:55:31;;;;;;;6.88;2.97;;;20.10;91.40;;;;;;5010590;28;20461;-88
2023/05/19 09:58:18;;;;;;;11.48;3.97;;;20.10;91.00;;;;;;5010326;28;20409;-89
2023/05/19 10:01:04;;;;;;;12.98;2.95;;;20.10;91.30;;;;;;5010680;28;20161;-91
2023/05/19 10:03:52;;;;;;;564.45;154.40;;;20.30;91.20;;;;;;5010335;28;20068;-89
2023/05/19 10:06:42;;;;;;;18.65;4.82;;;20.20;91.20;;;;;;5009530;28;20042;-89
2023/05/19 10:09:29;;;;;;;200.38;36.33;;;20.30;91.80;;;;;;4993346;28;20112;-82
2023/05/19 10:12:16;;;;;;;12.85;3.65;;;20.50;91.70;;;;;;5010956;28;20413;-91
2023/05/19 10:15:03;;;;;;;10.13;2.97;;;20.60;91.50;;;;;;4996329;28;20486;-85
2023/05/19 10:17:55;;;;;;;13.40;3.03;;;20.80;90.80;;;;;;5010598;28;20129;-83
2023/05/19 10:20:44;;;;;;;5.88;2.35;;;21.00;91.00;;;;;;4992070;28;20046;-91
2023/05/19 10:23:30;;;;;;;6.90;2.75;;;21.10;91.10;;;;;;4992538;28;20054;-90
2023/05/19 10:26:16;;;;;;;10.27;3.58;;;21.40;91.20;;;;;;5009985;28;20049;-84
2023/05/19 10:29:03;;;;;;;11.18;3.95;;;21.30;90.30;;;;;;5005975;28;20053;-87
2023/05/19 10:31:51;;;;;;;8.52;3.20;;;21.30;89.50;;;;;;5011392;28;20062;-88
2023/05/19 10:34:49;;;;;;;10.80;3.17;;;21.20;89.70;;;;;;5011208;28;20564;-85
2023/05/19 10:38:25;;;;;;;10.45;2.97;;;21.40;88.90;;;;;;5009532;28;20061;-85
2023/05/19 10:41:53;;;;;;;7.70;2.30;;;21.60;86.70;;;;;;4899677;29;20539;-85
2023/05/19 10:44:57;;;;;;;8.63;2.38;;;21.30;86.20;;;;;;4996281;28;20049;-83
2023/05/19 10:47:43;;;;;;;8.65;2.45;;;21.30;87.30;;;;;;5013782;28;20060;-89
2023/05/19 10:50:36;;;;;;;8.60;2.95;;;21.30;86.60;;;;;;5014322;28;20046;-86
2023/05/19 10:53:30;;;;;;;9.27;2.30;;;21.50;85.30;;;;;;4996970;28;20050;-87
2023/05/19 10:56:41;;;;;;;13.18;3.95;;;21.50;85.10;;;;;;4996689;28;20108;-86
2023/05/19 10:59:32;;;;;;;11.77;2.83;;;21.50;81.60;;;;;;4979275;28;20066;-84
2023/05/19 11:02:41;;;;;;;8.23;2.17;;;21.70;83.70;;;;;;4964004;28;20054;-84
2023/05/19 11:05:28;;;;;;;6.32;2.13;;;21.70;80.40;;;;;;4994610;28;20058;-82
2023/05/19 11:08:14;;;;;;;8.35;2.83;;;21.90;81.10;;;;;;4976358;28;20062;-90
2023/05/19 11:11:16;;;;;;;8.38;2.42;;;22.00;81.90;;;;;;4980309;28;20054;-86
2023/05/19 11:14:03;;;;;;;10.15;2.40;;;21.80;79.90;;;;;;4977580;28;20058;-85
2023/05/19 11:16:51;;;;;;;8.45;1.90;;;22.00;82.20;;;;;;4976798;28;20054;-83
2023/05/19 11:19:37;;;;;;;12.73;2.50;;;21.80;82.00;;;;;;4994868;28;20077;-82
2023/05/19 11:22:25;;;;;;;10.43;2.35;;;21.80;81.90;;;;;;4995063;28;20050;-84
2023/05/19 11:25:11;;;;;;;9.35;2.38;;;21.30;82.20;;;;;;4977329;28;20443;-85
2023/05/19 11:27:57;;;;;;;8.95;2.78;;;21.10;82.50;;;;;;4975655;28;20070;-82
2023/05/19 11:30:45;;;;;;;13.90;2.60;;;21.20;83.10;;;;;;4993285;28;20092;-86
2023/05/19 11:33:32;;;;;;;9.15;2.70;;;21.40;83.60;;;;;;4993872;28;20423;-87
2023/05/19 11:36:20;;;;;;;7.30;2.67;;;21.90;84.00;;;;;;4993991;28;20066;-83
2023/05/19 11:39:08;;;;;;;8.98;3.05;;;22.20;82.40;;;;;;4976909;28;20415;-82
2023/05/19 11:41:57;;;;;;;13.07;3.03;;;22.20;79.90;;;;;;4976950;28;20516;-87
2023/05/19 11:44:45;;;;;;;6.82;2.17;;;22.00;79.10;;;;;;4976345;28;20097;-82
2023/05/19 11:47:34;;;;;;;8.57;2.70;;;21.90;79.50;;;;;;4977092;28;20125;-87
2023/05/19 11:50:20;;;;;;;9.68;2.95;;;22.30;79.60;;;;;;4963104;28;20047;-81
2023/05/19 11:53:06;;;;;;;15.43;3.58;;;22.20;79.70;;;;;;4962730;28;20196;-82
2023/05/19 11:55:52;;;;;;;11.68;3.17;;;22.40;81.10;;;;;;4976201;28;20169;-86
2023/05/19 11:58:38;;;;;;;10.90;2.75;;;22.50;81.00;;;;;;4994864;28;20054;-83
2023/05/19 12:01:25;;;;;;;14.93;3.20;;;22.70;81.40;;;;;;5011411;28;20046;-85
2023/05/19 12:04:11;;;;;;;6.80;2.15;;;22.50;80.50;;;;;;4994154;28;20054;-82
2023/05/19 12:06:58;;;;;;;11.00;3.03;;;22.80;82.70;;;;;;5011715;28;20061;-87
2023/05/19 12:09:45;;;;;;;14.25;3.03;;;22.70;80.70;;;;;;4994204;28;20058;-84
2023/05/19 12:12:31;;;;;;;10.68;2.75;;;22.80;82.20;;;;;;5012069;28;20046;-88
2023/05/19 12:15:20;;;;;;;13.70;3.13;;;23.30;82.00;;;;;;4997478;28;20089;-82
2023/05/19 12:18:07;;;;;;;13.15;2.85;;;23.30;80.40;;;;;;4981713;28;20132;-83
2023/05/19 12:20:53;;;;;;;14.63;2.90;;;22.80;81.30;;;;;;4995119;28;20072;-85
2023/05/19 12:23:40;;;;;;;9.80;2.70;;;22.90;81.60;;;;;;5011217;28;20130;-86
2023/05/19 12:26:26;;;;;;;10.00;2.20;;;23.30;82.70;;;;;;5011068;28;20061;-87
2023/05/19 12:29:12;;;;;;;11.13;2.70;;;23.20;82.30;;;;;;5011703;28;20532;-85
2023/05/19 12:32:00;;;;;;;13.10;3.35;;;23.60;82.70;;;;;;5009448;28;20133;-82
2023/05/19 12:34:46;;;;;;;11.48;2.90;;;23.80;81.50;;;;;;5011123;28;20166;-83
2023/05/19 12:37:33;;;;;;;11.75;3.05;;;23.60;81.00;;;;;;4993111;28;20145;-87
2023/05/19 12:40:19;;;;;;;15.93;3.08;;;23.70;80.40;;;;;;5011577;28;20053;-83
2023/05/19 12:43:06;;;;;;;8.60;2.63;;;23.50;81.00;;;;;;4996722;28;20053;-83
2023/05/19 12:45:52;;;;;;;7.65;2.53;;;23.40;81.10;;;;;;5011142;28;20588;-84
2023/05/19 12:48:43;;;;;;;14.32;3.10;;;23.30;80.00;;;;;;4997548;28;20736;-83
2023/05/19 12:51:29;;;;;;;21.40;3.70;;;23.50;80.50;;;;;;4993177;28;20054;-86
2023/05/19 12:54:18;;;;;;;13.02;3.08;;;23.60;80.70;;;;;;5010250;28;20486;-86
2023/05/19 12:57:05;;;;;;;12.05;2.42;;;24.10;80.80;;;;;;5011150;28;20418;-86
2023/05/19 12:59:51;;;;;;;11.32;3.42;;;24.20;80.70;;;;;;5011758;28;20054;-85
2023/05/19 13:02:54;;;;;;;7.55;2.33;;;24.10;79.50;;;;;;4995983;28;20061;-82
2023/05/19 13:05:42;;;;;;;11.52;2.78;;;23.90;79.50;;;;;;4979778;28;20156;-84
2023/05/19 13:08:28;;;;;;;11.55;2.92;;;24.00;80.80;;;;;;4992530;28;20057;-85
2023/05/19 13:11:14;;;;;;;10.85;3.15;;;24.20;79.40;;;;;;5008519;28;20556;-87
2023/05/19 13:14:01;;;;;;;13.50;3.22;;;24.30;79.60;;;;;;5008692;28;20417;-83
2023/05/19 13:16:47;;;;;;;16.17;3.63;;;24.20;80.20;;;;;;4994046;28;20065;-86
2023/05/19 13:19:33;;;;;;;11.30;2.95;;;24.10;79.50;;;;;;4993122;28;20054;-88
2023/05/19 13:22:19;;;;;;;14.85;3.90;;;24.50;79.50;;;;;;4992558;28;20425;-87
2023/05/19 13:25:06;;;;;;;11.10;3.03;;;24.90;78.50;;;;;;4981501;28;20104;-82
2023/05/19 13:27:57;;;;;;;15.63;3.45;;;25.10;78.30;;;;;;4994427;28;20053;-87
2023/05/19 13:30:44;;;;;;;9.00;2.78;;;25.10;76.80;;;;;;4970190;28;20053;-83
2023/05/19 13:33:30;;;;;;;14.18;3.15;;;25.40;76.80;;;;;;4992012;28;20057;-82
2023/05/19 13:36:16;;;;;;;10.18;3.72;;;25.60;75.60;;;;;;5003169;28;20061;-83
2023/05/19 13:39:02;;;;;;;9.45;3.13;;;25.70;76.00;;;;;;5008080;28;20058;-88
2023/05/19 13:41:49;;;;;;;11.10;2.83;;;25.70;74.70;;;;;;5010545;28;20073;-86
2023/05/19 13:44:35;;;;;;;13.82;3.05;;;25.30;72.50;;;;;;5009948;28;20572;-85
2023/05/19 13:47:24;;;;;;;11.77;2.90;;;25.30;71.90;;;;;;5009705;28;20045;-86
2023/05/19 13:50:11;;;;;;;12.60;3.08;;;25.30;70.50;;;;;;4993622;28;20053;-90
2023/05/19 13:52:57;;;;;;;7.63;2.08;;;25.60;70.30;;;;;;4993312;28;20062;-88
2023/05/19 13:55:43;;;;;;;8.00;2.65;;;25.70;69.80;;;;;;4993085;28;20132;-90
2023/05/19 13:58:29;;;;;;;13.00;3.25;;;25.60;68.80;;;;;;5009182;28;20731;-90
2023/05/19 14:01:15;;;;;;;9.65;3.33;;;26.10;67.60;;;;;;4993279;28;20085;-89
2023/05/19 14:04:01;;;;;;;9.85;3.38;;;26.60;67.10;;;;;;4993153;28;20085;-89
2023/05/19 14:06:47;;;;;;;11.63;2.60;;;26.80;66.70;;;;;;4992883;28;20054;-89
2023/05/19 14:09:33;;;;;;;7.18;2.05;;;27.20;66.20;;;;;;5009949;28;20383;-84
2023/05/19 14:12:19;;;;;;;9.63;2.60;;;27.40;65.10;;;;;;5008897;28;20486;-87
2023/05/19 14:15:05;;;;;;;6.63;2.00;;;27.30;63.40;;;;;;5008266;28;20050;-88
2023/05/19 14:17:52;;;;;;;10.60;2.35;;;27.90;62.60;;;;;;4993236;28;20108;-84
2023/05/19 14:20:41;;;;;;;7.07;1.83;;;28.00;61.70;;;;;;4993079;28;20061;-86
2023/05/19 14:23:29;;;;;;;9.55;2.00;;;27.90;60.70;;;;;;4991514;28;20061;-85
2023/05/19 14:26:15;;;;;;;12.77;2.22;;;27.40;59.50;;;;;;5010505;28;20513;-85
2023/05/19 14:29:01;;;;;;;13.98;2.17;;;27.50;59.30;;;;;;4992653;28;20054;-84
2023/05/19 14:31:47;;;;;;;15.05;2.63;;;27.10;58.60;;;;;;4977567;28;20058;-87